Startpagina
METAR-TAF:

METAR-TAF

Vliegvelden :

Fort-de-France, Martinique

breedte: 14-36N, lengte: 061-00W, hoogte: 5 m

Actueel weer

Dit bericht is 25 minuten geleden gemaakt, om 12:00 UTC
Wind 12 kt uit het oosten
Temperatuur 28°C
Vochtigheid 70%
Druk 1018 hPa
Zicht 10 km of meer
Verspreide wolken op 2500 ft
Gebroken wolken op 3300 ft
Gebroken wolken op 4300 ft

METAR: TFFF 251200Z AUTO 10012KT 9999 SCT025 BKN033 BKN043 28/22 Q1018 NOSIG

Tijdstip: 08:25 (12:25 UTC)

Verwachting

Dit bericht is 1 uur en het 25 minuten geleden gemaakt, om 11:00 UTC
Verwachting geldig van 25 om 12 UTC tot 26 om 12 UTC
Wind 10 kt uit het oosten
Zicht 10 km of meer
Verspreide wolken op 2500 ft

TAF: TFFF 251100Z 2512/2612 10010KT 9999 SCT025

Waarnemingen en weersverwachtingen van meer dan 4000 vliegvelden (METAR en TAF).

De beschikbare stations zijn de gele en rode punten op de kaart.

Ga met uw muis naar het station om de naam te zien.

Klik dan om waarnemingen en weersverwachtingen te zien.

kaart wijzigen: klik op de groene knoppen met een zwart kruis om in te zoomen, op de groene knop met een streepje om uit te zoomen of op de groene pijlen voor aangrenzende kaarten.


METAR-TAF: